Hitachi, Japan
Current Conditions -  °F | °C
As of 2:30 AM on Saturday 22 Nov 2014 (Local Time) from RJAH Reporting Station
Broken Clouds Broken Clouds  
Wind Chill: 44°   Ceiling: Unl
Heat Index: 46°   Visibility: 5mi
Dew Point: 43°   Wind: 5mph
Humidity: 87%   Direction: 350°N
Pressure: 30.21"   Gusts: NA
Location:  36.59°N, 140.66°E
Report Text: RJAH 211730Z 35004KT 8000 FEW030 BKN/// 08/06 Q1023 RMK 2SC030 A3023
Loading
Personal Weather Stations






























Interactive Weather Map New forecast layout! Learn more

10-Day Weather Forecast

Advertisements
Track Severe Weather on mobile